sensor_id;sensor_type;location;lat;lon;timestamp;pressure;altitude;pressure_sealevel;temperature;humidity
42003;BME280;27693;50.506;30.832;2023-02-20T00:01:00;99000.84;;;-0.48;72.60
42003;BME280;27693;50.506;30.832;2023-02-20T00:02:02;98998.26;;;-0.46;72.64
42003;BME280;27693;50.506;30.832;2023-02-20T00:03:07;98984.65;;;-0.47;72.62
42003;BME280;27693;50.506;30.832;2023-02-20T00:04:12;99003.96;;;-0.26;72.41
42003;BME280;27693;50.506;30.832;2023-02-20T00:05:19;98995.70;;;-0.46;72.01
42003;BME280;27693;50.506;30.832;2023-02-20T00:06:22;99000.79;;;-0.43;72.06
42003;BME280;27693;50.506;30.832;2023-02-20T00:07:36;99000.66;;;-0.34;71.79
42003;BME280;27693;50.506;30.832;2023-02-20T00:08:38;98997.23;;;-0.31;71.73
42003;BME280;27693;50.506;30.832;2023-02-20T00:09:41;98994.59;;;-0.25;71.85
42003;BME280;27693;50.506;30.832;2023-02-20T00:10:45;99003.13;;;-0.26;71.99
42003;BME280;27693;50.506;30.832;2023-02-20T00:11:48;98994.68;;;-0.33;72.12
42003;BME280;27693;50.506;30.832;2023-02-20T00:12:52;99004.88;;;-0.30;71.77
42003;BME280;27693;50.506;30.832;2023-02-20T00:13:57;99007.63;;;-0.45;71.25
42003;BME280;27693;50.506;30.832;2023-02-20T00:14:59;98990.67;;;-0.53;71.42
42003;BME280;27693;50.506;30.832;2023-02-20T00:16:02;98989.78;;;-0.50;71.51
42003;BME280;27693;50.506;30.832;2023-02-20T00:17:05;98997.50;;;-0.55;71.42
42003;BME280;27693;50.506;30.832;2023-02-20T00:18:07;98988.84;;;-0.41;71.92
42003;BME280;27693;50.506;30.832;2023-02-20T00:19:09;98995.63;;;-0.40;71.45
42003;BME280;27693;50.506;30.832;2023-02-20T00:20:18;98994.01;;;-0.47;71.40
42003;BME280;27693;50.506;30.832;2023-02-20T00:21:22;98991.34;;;-0.38;71.57
42003;BME280;27693;50.506;30.832;2023-02-20T00:22:24;98980.34;;;-0.43;70.97
42003;BME280;27693;50.506;30.832;2023-02-20T00:23:26;99005.92;;;-0.46;70.93
42003;BME280;27693;50.506;30.832;2023-02-20T00:24:29;98977.03;;;-0.52;70.70
42003;BME280;27693;50.506;30.832;2023-02-20T00:25:32;98983.84;;;-0.51;70.85
42003;BME280;27693;50.506;30.832;2023-02-20T00:26:34;98988.09;;;-0.50;71.20
42003;BME280;27693;50.506;30.832;2023-02-20T00:27:37;98985.54;;;-0.50;71.21
42003;BME280;27693;50.506;30.832;2023-02-20T00:28:41;98979.52;;;-0.45;70.98
42003;BME280;27693;50.506;30.832;2023-02-20T00:29:45;98986.34;;;-0.47;70.99
42003;BME280;27693;50.506;30.832;2023-02-20T00:30:50;98983.79;;;-0.46;71.23
42003;BME280;27693;50.506;30.832;2023-02-20T00:31:57;98970.88;;;-0.37;71.11
42003;BME280;27693;50.506;30.832;2023-02-20T00:33:00;98988.84;;;-0.41;70.63
42003;BME280;27693;50.506;30.832;2023-02-20T00:34:08;98982.13;;;-0.49;70.85
42003;BME280;27693;50.506;30.832;2023-02-20T00:35:09;98986.27;;;-0.40;70.88
42003;BME280;27693;50.506;30.832;2023-02-20T00:36:15;98989.70;;;-0.42;70.57
42003;BME280;27693;50.506;30.832;2023-02-20T00:37:19;98981.96;;;-0.36;70.86
42003;BME280;27693;50.506;30.832;2023-02-20T00:38:21;98983.66;;;-0.35;70.69
42003;BME280;27693;50.506;30.832;2023-02-20T00:39:23;98996.38;;;-0.32;70.30
42003;BME280;27693;50.506;30.832;2023-02-20T00:40:26;98987.16;;;-0.42;69.62
42003;BME280;27693;50.506;30.832;2023-02-20T00:41:29;98989.84;;;-0.53;69.38
42003;BME280;27693;50.506;30.832;2023-02-20T00:42:33;98978.76;;;-0.52;69.36
42003;BME280;27693;50.506;30.832;2023-02-20T00:43:38;98985.40;;;-0.40;69.89
42003;BME280;27693;50.506;30.832;2023-02-20T00:44:40;98992.29;;;-0.45;69.70
42003;BME280;27693;50.506;30.832;2023-02-20T00:45:43;98986.38;;;-0.49;69.54
42003;BME280;27693;50.506;30.832;2023-02-20T00:46:47;98998.45;;;-0.60;68.91
42003;BME280;27693;50.506;30.832;2023-02-20T00:47:49;98983.92;;;-0.57;69.04
42003;BME280;27693;50.506;30.832;2023-02-20T00:48:52;98989.03;;;-0.57;69.36
42003;BME280;27693;50.506;30.832;2023-02-20T00:50:15;98997.63;;;-0.64;69.07
42003;BME280;27693;50.506;30.832;2023-02-20T00:51:19;99005.27;;;-0.62;68.96
42003;BME280;27693;50.506;30.832;2023-02-20T00:52:22;98995.02;;;-0.61;69.23
42003;BME280;27693;50.506;30.832;2023-02-20T00:53:24;99016.30;;;-0.59;69.12
42003;BME280;27693;50.506;30.832;2023-02-20T00:54:27;98993.48;;;-0.73;69.31
42003;BME280;27693;50.506;30.832;2023-02-20T00:55:30;98984.00;;;-0.63;69.61
42003;BME280;27693;50.506;30.832;2023-02-20T00:56:38;99008.69;;;-0.63;69.37
42003;BME280;27693;50.506;30.832;2023-02-20T00:57:41;98978.97;;;-0.69;69.32
42003;BME280;27693;50.506;30.832;2023-02-20T00:58:44;98999.41;;;-0.69;69.32
42003;BME280;27693;50.506;30.832;2023-02-20T00:59:47;98980.69;;;-0.71;69.51
42003;BME280;27693;50.506;30.832;2023-02-20T01:00:52;98994.23;;;-0.66;69.33
42003;BME280;27693;50.506;30.832;2023-02-20T01:01:57;98981.42;;;-0.61;69.91
42003;BME280;27693;50.506;30.832;2023-02-20T01:03:00;98983.95;;;-0.60;69.70
42003;BME280;27693;50.506;30.832;2023-02-20T01:04:02;98994.23;;;-0.66;69.34
42003;BME280;27693;50.506;30.832;2023-02-20T01:05:05;99000.19;;;-0.64;68.87
42003;BME280;27693;50.506;30.832;2023-02-20T01:06:08;98995.17;;;-0.73;69.00
42003;BME280;27693;50.506;30.832;2023-02-20T01:07:12;98978.97;;;-0.69;69.77
42003;BME280;27693;50.506;30.832;2023-02-20T01:08:15;98988.34;;;-0.71;69.45
42003;BME280;27693;50.506;30.832;2023-02-20T01:09:18;98984.86;;;-0.64;69.78
42003;BME280;27693;50.506;30.832;2023-02-20T01:10:23;98987.44;;;-0.67;69.32
42003;BME280;27693;50.506;30.832;2023-02-20T01:11:25;99005.39;;;-0.73;69.47
42003;BME280;27693;50.506;30.832;2023-02-20T01:12:28;99005.48;;;-0.81;69.35
42003;BME280;27693;50.506;30.832;2023-02-20T01:13:32;98996.13;;;-0.82;69.44
42003;BME280;27693;50.506;30.832;2023-02-20T01:14:35;98997.73;;;-0.73;69.92
42003;BME280;27693;50.506;30.832;2023-02-20T01:15:38;98986.61;;;-0.68;70.01
42003;BME280;27693;50.506;30.832;2023-02-20T01:16:44;99000.33;;;-0.78;69.30
42003;BME280;27693;50.506;30.832;2023-02-20T01:17:46;98999.61;;;-0.89;69.09
42003;BME280;27693;50.506;30.832;2023-02-20T01:18:51;99001.34;;;-0.90;69.37
42003;BME280;27693;50.506;30.832;2023-02-20T01:19:55;98999.45;;;-0.75;69.48
42003;BME280;27693;50.506;30.832;2023-02-20T01:20:57;99004.53;;;-0.72;69.04
42003;BME280;27693;50.506;30.832;2023-02-20T01:22:00;99012.27;;;-0.78;69.02
42003;BME280;27693;50.506;30.832;2023-02-20T01:23:12;98996.23;;;-0.90;68.82
42003;BME280;27693;50.506;30.832;2023-02-20T01:24:16;99004.00;;;-1.01;69.04
42003;BME280;27693;50.506;30.832;2023-02-20T01:25:21;99004.81;;;-0.97;69.23
42003;BME280;27693;50.506;30.832;2023-02-20T01:26:24;99009.86;;;-0.91;69.62
42003;BME280;27693;50.506;30.832;2023-02-20T01:27:26;98992.86;;;-0.93;69.32
42003;BME280;27693;50.506;30.832;2023-02-20T01:28:29;98987.82;;;-1.00;69.34
42003;BME280;27693;50.506;30.832;2023-02-20T01:29:31;99003.86;;;-0.88;69.42
42003;BME280;27693;50.506;30.832;2023-02-20T01:30:39;99032.03;;;-0.98;69.10
42003;BME280;27693;50.506;30.832;2023-02-20T01:33:03;99023.43;;;-0.89;69.34
42003;BME280;27693;50.506;30.832;2023-02-20T01:34:10;98999.77;;;-1.03;69.26
42003;BME280;27693;50.506;30.832;2023-02-20T01:35:14;99015.09;;;-1.03;69.32
42003;BME280;27693;50.506;30.832;2023-02-20T01:36:17;99050.84;;;-1.03;69.43
42003;BME280;27693;50.506;30.832;2023-02-20T01:37:21;99006.48;;;-0.96;69.13
42003;BME280;27693;50.506;30.832;2023-02-20T01:38:25;99021.80;;;-0.96;69.02
42003;BME280;27693;50.506;30.832;2023-02-20T01:39:28;99006.53;;;-0.99;68.84
42003;BME280;27693;50.506;30.832;2023-02-20T01:40:48;98995.41;;;-0.95;69.07
42003;BME280;27693;50.506;30.832;2023-02-20T01:41:53;98991.22;;;-1.02;69.08
42003;BME280;27693;50.506;30.832;2023-02-20T01:42:57;98975.80;;;-0.90;69.59
42003;BME280;27693;50.506;30.832;2023-02-20T01:44:07;98994.48;;;-0.88;69.37
42003;BME280;27693;50.506;30.832;2023-02-20T01:47:34;98985.96;;;-0.87;69.55
42003;BME280;27693;50.506;30.832;2023-02-20T01:48:37;98990.16;;;-0.81;69.96
42003;BME280;27693;50.506;30.832;2023-02-20T01:50:47;98987.64;;;-0.83;69.96
42003;BME280;27693;50.506;30.832;2023-02-20T01:52:02;99009.81;;;-0.86;69.93
42003;BME280;27693;50.506;30.832;2023-02-20T01:53:17;99014.98;;;-0.94;69.83
42003;BME280;27693;50.506;30.832;2023-02-20T01:54:13;98987.81;;;-1.01;69.94
42003;BME280;27693;50.506;30.832;2023-02-20T01:55:22;98991.12;;;-0.90;70.25
42003;BME280;27693;50.506;30.832;2023-02-20T01:56:26;99005.60;;;-0.92;70.21
42003;BME280;27693;50.506;30.832;2023-02-20T01:57:32;99021.00;;;-1.01;70.01
42003;BME280;27693;50.506;30.832;2023-02-20T01:58:40;98984.45;;;-1.03;70.12
42003;BME280;27693;50.506;30.832;2023-02-20T01:59:45;99012.53;;;-1.05;70.12
42003;BME280;27693;50.506;30.832;2023-02-20T02:00:50;98997.30;;;-1.13;70.26
42003;BME280;27693;50.506;30.832;2023-02-20T02:01:53;98991.33;;;-1.13;70.49
42003;BME280;27693;50.506;30.832;2023-02-20T02:03:06;98996.38;;;-1.05;70.45
42003;BME280;27693;50.506;30.832;2023-02-20T02:04:10;98995.56;;;-1.09;70.36
42003;BME280;27693;50.506;30.832;2023-02-20T02:05:14;99001.55;;;-1.11;70.07
42003;BME280;27693;50.506;30.832;2023-02-20T02:06:18;99004.96;;;-1.13;70.26
42003;BME280;27693;50.506;30.832;2023-02-20T02:07:20;99011.70;;;-1.05;70.25
42003;BME280;27693;50.506;30.832;2023-02-20T02:08:29;98990.47;;;-1.12;69.79
42003;BME280;27693;50.506;30.832;2023-02-20T02:09:47;99020.30;;;-1.16;69.97
42003;BME280;27693;50.506;30.832;2023-02-20T02:11:58;98994.77;;;-1.16;70.11
42003;BME280;27693;50.506;30.832;2023-02-20T02:13:02;98982.84;;;-1.14;70.48
42003;BME280;27693;50.506;30.832;2023-02-20T02:14:04;98996.39;;;-1.08;70.27
42003;BME280;27693;50.506;30.832;2023-02-20T02:15:15;98972.64;;;-1.17;70.16
42003;BME280;27693;50.506;30.832;2023-02-20T02:32:17;99005.20;;;-1.37;70.41
42003;BME280;27693;50.506;30.832;2023-02-20T02:39:58;99015.41;;;-1.37;70.79
42003;BME280;27693;50.506;30.832;2023-02-20T02:41:07;98995.06;;;-1.47;70.78
42003;BME280;27693;50.506;30.832;2023-02-20T02:43:46;99015.42;;;-1.40;70.86
42003;BME280;27693;50.506;30.832;2023-02-20T02:45:02;98993.38;;;-1.51;71.12
42003;BME280;27693;50.506;30.832;2023-02-20T02:46:24;98994.95;;;-1.34;71.28
42003;BME280;27693;50.506;30.832;2023-02-20T02:47:33;98998.47;;;-1.48;71.25
42003;BME280;27693;50.506;30.832;2023-02-20T02:48:56;98995.99;;;-1.55;71.51
42003;BME280;27693;50.506;30.832;2023-02-20T02:50:02;99005.17;;;-1.36;71.68
42003;BME280;27693;50.506;30.832;2023-02-20T02:51:09;99011.25;;;-1.49;71.17
42003;BME280;27693;50.506;30.832;2023-02-20T02:52:12;98983.16;;;-1.48;71.56
42003;BME280;27693;50.506;30.832;2023-02-20T02:53:17;99001.87;;;-1.49;71.38
42003;BME280;27693;50.506;30.832;2023-02-20T02:54:23;99004.52;;;-1.58;71.21
42003;BME280;27693;50.506;30.832;2023-02-20T02:55:30;99001.03;;;-1.51;71.47
42003;BME280;27693;50.506;30.832;2023-02-20T02:56:40;98989.89;;;-1.37;71.65
42003;BME280;27693;50.506;30.832;2023-02-20T02:57:44;98972.81;;;-1.34;71.37
42003;BME280;27693;50.506;30.832;2023-02-20T02:58:51;98991.52;;;-1.32;71.28
42003;BME280;27693;50.506;30.832;2023-02-20T03:01:11;98999.38;;;-1.55;71.18
42003;BME280;27693;50.506;30.832;2023-02-20T03:02:17;99001.13;;;-1.60;71.28
42003;BME280;27693;50.506;30.832;2023-02-20T03:03:26;98983.16;;;-1.48;71.23
42003;BME280;27693;50.506;30.832;2023-02-20T03:04:32;98993.38;;;-1.51;71.11
42003;BME280;27693;50.506;30.832;2023-02-20T03:05:39;98982.35;;;-1.54;71.64
42003;BME280;27693;50.506;30.832;2023-02-20T03:06:44;98991.71;;;-1.52;71.33
42003;BME280;27693;50.506;30.832;2023-02-20T03:07:50;98975.47;;;-1.43;71.47
42003;BME280;27693;50.506;30.832;2023-02-20T03:09:09;98996.77;;;-1.49;71.19
42003;BME280;27693;50.506;30.832;2023-02-20T03:10:15;98975.53;;;-1.49;71.29
42003;BME280;27693;50.506;30.832;2023-02-20T03:11:21;98993.38;;;-1.51;71.27
42003;BME280;27693;50.506;30.832;2023-02-20T03:12:25;98994.27;;;-1.55;71.38
42003;BME280;27693;50.506;30.832;2023-02-20T03:13:33;99018.09;;;-1.56;71.06
42003;BME280;27693;50.506;30.832;2023-02-20T03:14:59;98996.88;;;-1.61;71.17
42003;BME280;27693;50.506;30.832;2023-02-20T03:16:26;98981.56;;;-1.58;71.26
42003;BME280;27693;50.506;30.832;2023-02-20T03:17:34;98974.66;;;-1.50;71.60
42003;BME280;27693;50.506;30.832;2023-02-20T03:18:37;99003.58;;;-1.51;71.28
42003;BME280;27693;50.506;30.832;2023-02-20T03:19:50;99014.73;;;-1.64;71.00
42003;BME280;27693;50.506;30.832;2023-02-20T03:20:57;99004.59;;;-1.70;71.03
42003;BME280;27693;50.506;30.832;2023-02-20T03:22:01;98974.77;;;-1.62;71.28
42003;BME280;27693;50.506;30.832;2023-02-20T03:23:07;98987.46;;;-1.53;71.16
42003;BME280;27693;50.506;30.832;2023-02-20T03:24:12;98993.50;;;-1.65;71.05
42003;BME280;27693;50.506;30.832;2023-02-20T03:25:21;98996.13;;;-1.72;71.20
42003;BME280;27693;50.506;30.832;2023-02-20T03:26:28;98986.66;;;-1.58;71.46
42003;BME280;27693;50.506;30.832;2023-02-20T03:27:39;99021.58;;;-1.66;71.08
42003;BME280;27693;50.506;30.832;2023-02-20T03:28:57;98998.72;;;-1.79;71.26
42003;BME280;27693;50.506;30.832;2023-02-20T03:29:59;99007.23;;;-1.80;71.35
42003;BME280;27693;50.506;30.832;2023-02-20T03:31:16;99043.67;;;-1.67;71.43
42003;BME280;27693;50.506;30.832;2023-02-20T03:32:23;99017.30;;;-1.64;71.31
42003;BME280;27693;50.506;30.832;2023-02-20T03:34:02;98976.44;;;-1.56;71.36
42003;BME280;27693;50.506;30.832;2023-02-20T03:35:20;99029.19;;;-1.60;71.00
42003;BME280;27693;50.506;30.832;2023-02-20T03:36:59;98993.52;;;-1.66;70.97
42003;BME280;27693;50.506;30.832;2023-02-20T03:38:22;98991.78;;;-1.64;71.37
42003;BME280;27693;50.506;30.832;2023-02-20T03:39:50;99004.58;;;-1.67;71.13
42003;BME280;27693;50.506;30.832;2023-02-20T03:41:13;98987.57;;;-1.65;71.36
42003;BME280;27693;50.506;30.832;2023-02-20T03:42:39;99007.99;;;-1.71;71.05
42003;BME280;27693;50.506;30.832;2023-02-20T03:44:04;99007.18;;;-1.73;71.27
42003;BME280;27693;50.506;30.832;2023-02-20T03:45:10;99018.19;;;-1.71;71.20
42003;BME280;27693;50.506;30.832;2023-02-20T03:46:16;99007.18;;;-1.73;71.23
42003;BME280;27693;50.506;30.832;2023-02-20T03:47:22;98985.13;;;-1.81;71.45
42003;BME280;27693;50.506;30.832;2023-02-20T03:49:37;99002.16;;;-1.87;71.67
42003;BME280;27693;50.506;30.832;2023-02-20T03:50:39;99015.64;;;-1.71;71.80
42003;BME280;27693;50.506;30.832;2023-02-20T03:51:42;98988.44;;;-1.69;71.53
42003;BME280;27693;50.506;30.832;2023-02-20T03:52:47;98977.30;;;-1.61;71.84
42003;BME280;27693;50.506;30.832;2023-02-20T03:53:52;99031.72;;;-1.58;71.48
42003;BME280;27693;50.506;30.832;2023-02-20T03:54:56;99006.36;;;-1.80;71.29
42003;BME280;27693;50.506;30.832;2023-02-20T03:56:03;98995.33;;;-1.81;71.29
42003;BME280;27693;50.506;30.832;2023-02-20T03:57:10;99000.39;;;-1.78;71.49
42003;BME280;27693;50.506;30.832;2023-02-20T03:58:17;99012.38;;;-1.86;71.41
42003;BME280;27693;50.506;30.832;2023-02-20T03:59:26;98986.05;;;-1.93;71.62
42003;BME280;27693;50.506;30.832;2023-02-20T04:00:33;99014.03;;;-1.82;71.69
42003;BME280;27693;50.506;30.832;2023-02-20T04:01:38;98996.18;;;-1.82;71.56
42003;BME280;27693;50.506;30.832;2023-02-20T04:02:44;98997.05;;;-1.84;71.44
42003;BME280;27693;50.506;30.832;2023-02-20T04:03:51;98987.70;;;-1.85;71.72
42003;BME280;27693;50.506;30.832;2023-02-20T04:04:57;99007.28;;;-1.92;71.81
42003;BME280;27693;50.506;30.832;2023-02-20T04:06:03;98994.55;;;-1.90;72.10
42003;BME280;27693;50.506;30.832;2023-02-20T04:07:15;99005.53;;;-1.84;71.73
42003;BME280;27693;50.506;30.832;2023-02-20T04:08:21;99014.02;;;-1.80;71.43
42003;BME280;27693;50.506;30.832;2023-02-20T04:09:29;99007.22;;;-1.81;71.35
42003;BME280;27693;50.506;30.832;2023-02-20T04:10:38;98996.23;;;-1.88;71.26
42003;BME280;27693;50.506;30.832;2023-02-20T04:11:44;98991.98;;;-1.89;71.77
42003;BME280;27693;50.506;30.832;2023-02-20T04:12:48;98985.27;;;-1.99;71.51
42003;BME280;27693;50.506;30.832;2023-02-20T04:13:53;99019.26;;;-2.00;71.55
42003;BME280;27693;50.506;30.832;2023-02-20T04:14:58;98983.48;;;-1.91;71.76
42003;BME280;27693;50.506;30.832;2023-02-20T04:16:02;98977.46;;;-1.79;71.74
42003;BME280;27693;50.506;30.832;2023-02-20T04:17:08;99005.48;;;-1.78;71.49
42003;BME280;27693;50.506;30.832;2023-02-20T04:18:17;98974.02;;;-1.73;71.52
42003;BME280;27693;50.506;30.832;2023-02-20T04:19:22;98968.98;;;-1.83;71.55
42003;BME280;27693;50.506;30.832;2023-02-20T04:20:26;98968.07;;;-1.72;71.74
42003;BME280;27693;50.506;30.832;2023-02-20T04:21:43;98969.73;;;-1.68;71.69
42003;BME280;27693;50.506;30.832;2023-02-20T04:22:48;98969.73;;;-1.68;71.69
42003;BME280;27693;50.506;30.832;2023-02-20T04:24:08;99004.71;;;-1.87;70.88
42003;BME280;27693;50.506;30.832;2023-02-20T04:26:37;98985.23;;;-1.96;71.61
42003;BME280;27693;50.506;30.832;2023-02-20T04:27:41;98972.48;;;-1.96;71.50
42003;BME280;27693;50.506;30.832;2023-02-20T04:28:45;98977.51;;;-1.85;71.35
42003;BME280;27693;50.506;30.832;2023-02-20T04:29:50;98970.61;;;-1.74;71.33
42003;BME280;27693;50.506;30.832;2023-02-20T04:30:53;99043.84;;;-1.91;70.85
42003;BME280;27693;50.506;30.832;2023-02-20T04:31:55;98976.77;;;-2.01;71.32
42003;BME280;27693;50.506;30.832;2023-02-20T04:32:59;98983.48;;;-1.91;71.59
42003;BME280;27693;50.506;30.832;2023-02-20T04:34:03;98969.00;;;-1.84;71.51
42003;BME280;27693;50.506;30.832;2023-02-20T04:35:06;98963.86;;;-1.78;71.80
42003;BME280;27693;50.506;30.832;2023-02-20T04:36:11;98976.58;;;-1.73;71.29
42003;BME280;27693;50.506;30.832;2023-02-20T04:37:16;99002.09;;;-1.77;70.82
42003;BME280;27693;50.506;30.832;2023-02-20T04:38:22;98998.78;;;-1.91;70.45
42003;BME280;27693;50.506;30.832;2023-02-20T04:39:38;98973.38;;;-2.00;70.61
42003;BME280;27693;50.506;30.832;2023-02-20T04:40:41;98973.33;;;-1.94;71.05
42003;BME280;27693;50.506;30.832;2023-02-20T04:41:44;98959.70;;;-1.91;70.89
42003;BME280;27693;50.506;30.832;2023-02-20T04:42:46;98976.73;;;-1.95;71.07
42003;BME280;27693;50.506;30.832;2023-02-20T04:43:49;98946.14;;;-1.95;71.01
42003;BME280;27693;50.506;30.832;2023-02-20T04:44:53;98962.19;;;-1.84;71.17
42003;BME280;27693;50.506;30.832;2023-02-20T04:45:56;98963.04;;;-1.85;70.60
42003;BME280;27693;50.506;30.832;2023-02-20T04:47:02;98974.93;;;-1.81;70.69
42003;BME280;27693;50.506;30.832;2023-02-20T04:48:05;98961.33;;;-1.80;70.45
42003;BME280;27693;50.506;30.832;2023-02-20T04:49:07;98991.94;;;-1.83;70.20
42003;BME280;27693;50.506;30.832;2023-02-20T04:50:20;98987.77;;;-1.93;70.34
42003;BME280;27693;50.506;30.832;2023-02-20T04:51:21;98997.13;;;-1.95;70.31
42003;BME280;27693;50.506;30.832;2023-02-20T04:52:24;98982.72;;;-2.02;70.34
42003;BME280;27693;50.506;30.832;2023-02-20T04:53:26;98978.47;;;-2.00;70.47
42003;BME280;27693;50.506;30.832;2023-02-20T04:54:29;98985.14;;;-1.84;70.75
42003;BME280;27693;50.506;30.832;2023-02-20T04:55:31;98983.44;;;-1.85;70.61
42003;BME280;27693;50.506;30.832;2023-02-20T04:56:37;98986.83;;;-1.83;70.31
42003;BME280;27693;50.506;30.832;2023-02-20T04:57:40;98994.52;;;-1.86;70.34
42003;BME280;27693;50.506;30.832;2023-02-20T04:58:45;98988.59;;;-1.91;70.22
42003;BME280;27693;50.506;30.832;2023-02-20T04:59:49;98997.13;;;-1.95;70.31
42003;BME280;27693;50.506;30.832;2023-02-20T05:00:53;99020.09;;;-1.97;70.35
42003;BME280;27693;50.506;30.832;2023-02-20T05:01:55;99003.16;;;-2.09;70.50
42003;BME280;27693;50.506;30.832;2023-02-20T05:02:58;98980.94;;;-1.91;70.41
42003;BME280;27693;50.506;30.832;2023-02-20T05:04:00;99009.82;;;-1.86;70.60
42003;BME280;27693;50.506;30.832;2023-02-20T05:05:04;98991.20;;;-1.99;70.40
42003;BME280;27693;50.506;30.832;2023-02-20T05:06:09;99010.68;;;-1.90;70.30
42003;BME280;27693;50.506;30.832;2023-02-20T05:07:12;98990.36;;;-1.99;70.25
42003;BME280;27693;50.506;30.832;2023-02-20T05:08:14;99003.07;;;-1.93;70.11
42003;BME280;27693;50.506;30.832;2023-02-20T05:09:18;98999.66;;;-1.94;70.31
42003;BME280;27693;50.506;30.832;2023-02-20T05:10:23;99007.28;;;-1.92;70.04
42003;BME280;27693;50.506;30.832;2023-02-20T05:11:25;99002.27;;;-2.01;70.06
42003;BME280;27693;50.506;30.832;2023-02-20T05:12:28;98998.80;;;-1.89;70.28
42003;BME280;27693;50.506;30.832;2023-02-20T05:13:30;98998.69;;;-1.75;70.46
42003;BME280;27693;50.506;30.832;2023-02-20T05:14:34;98995.23;;;-1.71;70.34
42003;BME280;27693;50.506;30.832;2023-02-20T05:15:37;99018.21;;;-1.73;69.84
42003;BME280;27693;50.506;30.832;2023-02-20T05:16:40;99024.30;;;-1.89;69.60
42003;BME280;27693;50.506;30.832;2023-02-20T05:17:43;98998.73;;;-1.85;69.95
42003;BME280;27693;50.506;30.832;2023-02-20T05:18:46;99017.47;;;-1.86;69.83
42003;BME280;27693;50.506;30.832;2023-02-20T05:19:48;98995.37;;;-1.87;69.90
42003;BME280;27693;50.506;30.832;2023-02-20T05:20:51;99015.69;;;-1.78;69.86
42003;BME280;27693;50.506;30.832;2023-02-20T05:22:12;99024.23;;;-1.82;69.61
42003;BME280;27693;50.506;30.832;2023-02-20T05:23:21;99013.22;;;-1.87;69.48
42003;BME280;27693;50.506;30.832;2023-02-20T05:24:23;98996.97;;;-1.75;69.50
42003;BME280;27693;50.506;30.832;2023-02-20T05:25:26;99010.67;;;-1.87;69.33
42003;BME280;27693;50.506;30.832;2023-02-20T05:26:29;98985.97;;;-1.79;69.75
42003;BME280;27693;50.506;30.832;2023-02-20T05:27:32;99019.08;;;-1.72;69.59
42003;BME280;27693;50.506;30.832;2023-02-20T05:28:35;99008.08;;;-1.81;69.11
42003;BME280;27693;50.506;30.832;2023-02-20T05:29:47;99003.78;;;-1.75;69.05
42003;BME280;27693;50.506;30.832;2023-02-20T05:30:47;99020.02;;;-1.86;69.07
42003;BME280;27693;50.506;30.832;2023-02-20T05:31:50;99007.26;;;-1.87;69.09
42003;BME280;27693;50.506;30.832;2023-02-20T05:32:52;99035.33;;;-1.92;69.23
42003;BME280;27693;50.506;30.832;2023-02-20T05:33:55;99016.66;;;-1.96;69.42
42003;BME280;27693;50.506;30.832;2023-02-20T05:34:57;99016.63;;;-1.91;69.45
42003;BME280;27693;50.506;30.832;2023-02-20T05:36:00;99005.53;;;-1.84;69.53
42003;BME280;27693;50.506;30.832;2023-02-20T05:37:02;98994.47;;;-1.81;69.38
42003;BME280;27693;50.506;30.832;2023-02-20T05:38:05;99007.23;;;-1.80;69.12
42003;BME280;27693;50.506;30.832;2023-02-20T05:39:09;99043.76;;;-1.79;69.32
42003;BME280;27693;50.506;30.832;2023-02-20T05:40:13;99011.45;;;-1.77;69.13
42003;BME280;27693;50.506;30.832;2023-02-20T05:41:18;99009.77;;;-1.81;69.00
42003;BME280;27693;50.506;30.832;2023-02-20T05:42:20;99000.45;;;-1.82;69.25
42003;BME280;27693;50.506;30.832;2023-02-20T05:43:24;99001.19;;;-1.69;69.57
42003;BME280;27693;50.506;30.832;2023-02-20T05:44:28;99028.45;;;-1.76;69.02
42003;BME280;27693;50.506;30.832;2023-02-20T05:45:31;98976.62;;;-1.80;69.09
42003;BME280;27693;50.506;30.832;2023-02-20T05:46:38;98991.88;;;-1.73;69.10
42003;BME280;27693;50.506;30.832;2023-02-20T05:47:42;99008.88;;;-1.72;68.98
42003;BME280;27693;50.506;30.832;2023-02-20T05:48:49;99012.24;;;-1.70;69.07
42003;BME280;27693;50.506;30.832;2023-02-20T05:49:52;99020.69;;;-1.62;68.87
42003;BME280;27693;50.506;30.832;2023-02-20T05:50:54;99013.13;;;-1.74;68.75
42003;BME280;27693;50.506;30.832;2023-02-20T05:51:57;99007.19;;;-1.77;68.80
42003;BME280;27693;50.506;30.832;2023-02-20T05:52:59;98988.37;;;-1.60;69.45
42003;BME280;27693;50.506;30.832;2023-02-20T05:54:03;98999.41;;;-1.59;69.21
42003;BME280;27693;50.506;30.832;2023-02-20T05:55:07;99002.88;;;-1.68;68.95
42003;BME280;27693;50.506;30.832;2023-02-20T05:56:10;98989.28;;;-1.67;68.87
42003;BME280;27693;50.506;30.832;2023-02-20T05:57:12;99012.27;;;-1.72;68.76
42003;BME280;27693;50.506;30.832;2023-02-20T05:58:15;98992.69;;;-1.71;69.05
42003;BME280;27693;50.506;30.832;2023-02-20T05:59:19;99004.60;;;-1.69;69.11
42003;BME280;27693;50.506;30.832;2023-02-20T06:00:24;99012.19;;;-1.64;68.97
42003;BME280;27693;50.506;30.832;2023-02-20T06:01:28;98999.36;;;-1.53;69.53
42003;BME280;27693;50.506;30.832;2023-02-20T06:02:31;99007.01;;;-1.53;69.54
42003;BME280;27693;50.506;30.832;2023-02-20T06:03:37;99022.38;;;-1.61;69.04
42003;BME280;27693;50.506;30.832;2023-02-20T06:04:40;99002.80;;;-1.57;69.19
42003;BME280;27693;50.506;30.832;2023-02-20T06:05:43;99020.64;;;-1.56;69.06
42003;BME280;27693;50.506;30.832;2023-02-20T06:06:47;99053.81;;;-1.57;68.76
42003;BME280;27693;50.506;30.832;2023-02-20T06:07:49;99035.14;;;-1.61;68.79
42003;BME280;27693;50.506;30.832;2023-02-20T06:08:52;99039.36;;;-1.55;68.87
42003;BME280;27693;50.506;30.832;2023-02-20T06:09:54;99022.34;;;-1.55;68.76
42003;BME280;27693;50.506;30.832;2023-02-20T06:10:59;99033.41;;;-1.57;68.59
42003;BME280;27693;50.506;30.832;2023-02-20T06:12:05;99026.59;;;-1.57;68.63
42003;BME280;27693;50.506;30.832;2023-02-20T06:13:07;99034.28;;;-1.60;68.76
42003;BME280;27693;50.506;30.832;2023-02-20T06:14:09;99022.33;;;-1.52;68.87
42003;BME280;27693;50.506;30.832;2023-02-20T06:15:12;99023.98;;;-1.51;68.76
42003;BME280;27693;50.506;30.832;2023-02-20T06:16:23;99035.11;;;-1.56;68.80
42003;BME280;27693;50.506;30.832;2023-02-20T06:17:26;99026.61;;;-1.55;68.67
42003;BME280;27693;50.506;30.832;2023-02-20T06:18:30;99022.38;;;-1.58;68.89